Time;durP1;ratioP1;P1;durP2;ratioP2;P2;SDS_P1;SDS_P2;PMS_P1;PMS_P2;Temp;Humidity;BMP_temperature;BMP_pressure;BME280_temperature;BME280_humidity;BME280_pressure;Samples;Min_cycle;Max_cycle;Signal;HPM_P1;HPM_P2
2021/04/26 00:01:49;;;;;;;7.80;4.60;;;;;;;;;;5075628;28;20033;-75
2021/04/26 00:04:15;;;;;;;7.95;4.68;;;;;;;;;;5075365;28;20028;-76
2021/04/26 00:06:41;;;;;;;6.20;4.68;;;;;;;;;;5075603;28;20046;-76
2021/04/26 00:09:07;;;;;;;8.02;5.35;;;;;;;;;;5075254;28;20452;-75
2021/04/26 00:11:34;;;;;;;9.23;6.18;;;;;;;;;;5075493;28;20044;-76
2021/04/26 00:14:00;;;;;;;7.82;4.70;;;;;;;;;;5075223;28;20028;-75
2021/04/26 00:16:26;;;;;;;7.93;5.45;;;;;;;;;;5075241;28;20028;-75
2021/04/26 00:18:52;;;;;;;9.68;5.50;;;;;;;;;;5075362;28;20436;-75
2021/04/26 00:21:18;;;;;;;7.22;5.05;;;;;;;;;;5074916;28;20040;-76
2021/04/26 00:23:44;;;;;;;8.00;5.25;;;;;;;;;;5075042;28;20082;-75
2021/04/26 00:26:11;;;;;;;7.68;4.38;;;;;;;;;;5074981;28;20020;-76
2021/04/26 00:28:37;;;;;;;7.78;4.68;;;;;;;;;;5075041;28;20035;-76
2021/04/26 00:31:04;;;;;;;6.20;4.15;;;;;;;;;;5074837;28;20044;-75
2021/04/26 00:33:30;;;;;;;7.30;4.57;;;;;;;;;;5074852;28;20036;-75
2021/04/26 00:35:56;;;;;;;7.72;4.97;;;;;;;;;;5074709;28;20120;-75
2021/04/26 00:38:22;;;;;;;7.38;4.40;;;;;;;;;;5074986;28;20058;-75
2021/04/26 00:40:48;;;;;;;6.43;3.97;;;;;;;;;;5074836;28;20036;-75
2021/04/26 00:43:15;;;;;;;6.50;4.15;;;;;;;;;;5074597;28;20032;-75
2021/04/26 00:45:41;;;;;;;7.03;4.10;;;;;;;;;;5074638;28;20086;-76
2021/04/26 00:48:07;;;;;;;6.40;4.70;;;;;;;;;;5073647;28;20090;-75
2021/04/26 00:50:34;;;;;;;10.32;6.28;;;;;;;;;;5074450;28;20395;-75
2021/04/26 00:53:02;;;;;;;9.80;7.18;;;;;;;;;;5074550;28;20023;-76
2021/04/26 00:55:29;;;;;;;9.07;7.45;;;;;;;;;;5074456;28;20052;-75
2021/04/26 00:57:55;;;;;;;8.93;7.60;;;;;;;;;;5074772;28;20423;-75
2021/04/26 01:00:22;;;;;;;9.35;7.20;;;;;;;;;;5074266;28;20029;-75
2021/04/26 01:02:48;;;;;;;9.82;7.60;;;;;;;;;;5074187;28;20082;-75
2021/04/26 01:05:17;;;;;;;10.70;6.88;;;;;;;;;;5074236;28;20051;-75
2021/04/26 01:07:44;;;;;;;9.15;7.07;;;;;;;;;;5056283;28;20446;-75
2021/04/26 01:10:11;;;;;;;9.93;7.57;;;;;;;;;;5074037;28;20032;-75
2021/04/26 01:12:46;;;;;;;11.52;8.02;;;;;;;;;;5073939;28;20033;-75
2021/04/26 01:15:15;;;;;;;11.07;7.78;;;;;;;;;;5074058;28;20020;-75
2021/04/26 01:17:47;;;;;;;10.52;6.88;;;;;;;;;;5074273;28;20033;-75
2021/04/26 01:20:13;;;;;;;11.38;7.60;;;;;;;;;;5073863;28;20032;-75
2021/04/26 01:22:57;;;;;;;10.70;8.13;;;;;;;;;;5073925;28;20035;-75
2021/04/26 01:25:24;;;;;;;11.00;8.52;;;;;;;;;;5073851;28;20013;-75
2021/04/26 01:28:16;;;;;;;11.50;7.20;;;;;;;;;;5073747;28;20024;-75
2021/04/26 01:30:42;;;;;;;9.60;7.25;;;;;;;;;;5073732;28;20056;-75
2021/04/26 01:33:19;;;;;;;11.05;8.38;;;;;;;;;;5073692;28;20165;-75
2021/04/26 01:35:45;;;;;;;10.45;7.93;;;;;;;;;;5074058;28;20028;-75
2021/04/26 01:38:17;;;;;;;9.55;8.20;;;;;;;;;;5073546;28;20021;-75
2021/04/26 01:40:44;;;;;;;8.55;6.95;;;;;;;;;;5073601;28;20363;-75
2021/04/26 01:43:11;;;;;;;11.23;7.30;;;;;;;;;;5073619;28;20040;-76
2021/04/26 01:45:38;;;;;;;8.95;7.22;;;;;;;;;;5073550;28;20082;-75
2021/04/26 01:48:04;;;;;;;10.20;7.63;;;;;;;;;;5073761;28;20032;-75
2021/04/26 01:50:31;;;;;;;8.95;6.47;;;;;;;;;;5073513;28;20031;-75
2021/04/26 01:52:57;;;;;;;11.57;5.55;;;;;;;;;;5073388;28;20020;-75
2021/04/26 01:55:24;;;;;;;7.93;5.72;;;;;;;;;;5073369;28;20097;-76
2021/04/26 01:57:51;;;;;;;7.07;5.18;;;;;;;;;;5073619;28;20025;-75
2021/04/26 02:00:20;;;;;;;7.35;5.10;;;;;;;;;;5073165;28;20024;-76
2021/04/26 02:02:46;;;;;;;8.82;5.63;;;;;;;;;;5073394;28;20024;-76
2021/04/26 02:05:14;;;;;;;6.20;4.82;;;;;;;;;;5073313;28;20163;-75
2021/04/26 02:07:44;;;;;;;7.32;4.97;;;;;;;;;;5073382;28;20025;-75
2021/04/26 02:10:11;;;;;;;8.32;6.55;;;;;;;;;;5073265;28;20040;-75
2021/04/26 02:12:38;;;;;;;8.90;6.25;;;;;;;;;;5073302;28;20020;-75
2021/04/26 02:15:08;;;;;;;8.63;6.63;;;;;;;;;;5073289;28;20025;-75
2021/04/26 02:17:35;;;;;;;10.52;6.38;;;;;;;;;;5073290;28;20025;-75
2021/04/26 02:20:01;;;;;;;9.85;5.35;;;;;;;;;;5055436;28;20154;-76
2021/04/26 02:22:27;;;;;;;6.47;5.75;;;;;;;;;;5055643;28;20024;-75
2021/04/26 02:24:54;;;;;;;7.55;5.88;;;;;;;;;;5073280;28;20017;-75
2021/04/26 02:27:20;;;;;;;8.93;6.30;;;;;;;;;;5073134;28;20031;-75
2021/04/26 02:29:46;;;;;;;8.45;6.03;;;;;;;;;;5073207;28;20106;-75
2021/04/26 02:32:14;;;;;;;10.27;6.53;;;;;;;;;;5073071;28;20036;-75
2021/04/26 02:34:42;;;;;;;7.03;5.63;;;;;;;;;;5073057;28;20447;-75
2021/04/26 02:37:12;;;;;;;8.63;5.70;;;;;;;;;;5073051;28;20028;-75
2021/04/26 02:39:39;;;;;;;7.10;5.50;;;;;;;;;;5072993;28;20040;-75
2021/04/26 02:42:07;;;;;;;8.80;5.65;;;;;;;;;;5073057;28;20029;-75
2021/04/26 02:44:34;;;;;;;9.13;6.20;;;;;;;;;;5055784;28;20017;-75
2021/04/26 02:47:03;;;;;;;9.88;6.93;;;;;;;;;;5072943;28;20029;-75
2021/04/26 02:49:29;;;;;;;9.00;6.43;;;;;;;;;;5072754;28;20471;-75
2021/04/26 02:51:56;;;;;;;8.50;6.93;;;;;;;;;;5072930;28;20214;-75
2021/04/26 02:54:23;;;;;;;12.00;8.43;;;;;;;;;;5072971;28;20078;-76
2021/04/26 02:56:50;;;;;;;9.82;7.45;;;;;;;;;;5072945;28;20036;-75
2021/04/26 02:59:19;;;;;;;6.95;5.90;;;;;;;;;;5072764;28;20063;-76
2021/04/26 03:01:46;;;;;;;12.05;7.32;;;;;;;;;;5072628;28;20036;-75
2021/04/26 03:04:12;;;;;;;10.48;7.38;;;;;;;;;;5072947;28;20476;-75
2021/04/26 03:06:38;;;;;;;9.15;7.38;;;;;;;;;;5072960;28;20021;-75
2021/04/26 03:09:06;;;;;;;9.63;7.45;;;;;;;;;;5072759;28;20051;-75
2021/04/26 03:11:32;;;;;;;10.35;7.63;;;;;;;;;;5074675;28;20028;-75
2021/04/26 03:13:59;;;;;;;11.07;7.97;;;;;;;;;;5076417;28;20104;-75
2021/04/26 03:16:25;;;;;;;11.82;7.53;;;;;;;;;;5076122;28;20090;-75
2021/04/26 03:18:52;;;;;;;10.90;8.25;;;;;;;;;;5076297;28;20020;-75
2021/04/26 03:21:18;;;;;;;12.93;8.27;;;;;;;;;;5076255;28;20468;-75
2021/04/26 03:23:44;;;;;;;18.65;10.13;;;;;;;;;;5076317;28;20021;-75
2021/04/26 03:26:11;;;;;;;20.08;10.30;;;;;;;;;;5076257;28;20361;-75
2021/04/26 03:28:38;;;;;;;14.98;9.45;;;;;;;;;;5076115;28;20530;-75
2021/04/26 03:31:05;;;;;;;16.05;10.23;;;;;;;;;;5076110;28;20053;-75
2021/04/26 03:33:32;;;;;;;13.10;9.43;;;;;;;;;;5076059;28;20032;-75
2021/04/26 03:35:59;;;;;;;11.30;8.52;;;;;;;;;;5075970;28;20044;-75
2021/04/26 03:38:25;;;;;;;12.25;9.10;;;;;;;;;;5076020;28;20471;-76
2021/04/26 03:40:52;;;;;;;13.65;9.32;;;;;;;;;;5058060;28;20380;-75
2021/04/26 03:43:18;;;;;;;14.38;9.40;;;;;;;;;;5075980;28;20113;-75
2021/04/26 03:45:45;;;;;;;17.15;9.60;;;;;;;;;;5076419;28;20029;-75
2021/04/26 03:48:11;;;;;;;15.23;9.45;;;;;;;;;;5075920;28;20149;-76
2021/04/26 03:50:37;;;;;;;16.02;10.88;;;;;;;;;;5075716;28;20105;-75
2021/04/26 03:53:03;;;;;;;16.90;10.57;;;;;;;;;;5075730;28;20039;-76
2021/04/26 03:55:29;;;;;;;16.25;11.60;;;;;;;;;;5075674;28;20092;-76
2021/04/26 03:57:55;;;;;;;14.40;10.05;;;;;;;;;;5075631;28;20379;-75
2021/04/26 04:00:22;;;;;;;16.10;10.98;;;;;;;;;;5075512;28;20028;-75
2021/04/26 04:02:49;;;;;;;13.40;9.00;;;;;;;;;;5075727;28;20039;-75
2021/04/26 04:05:16;;;;;;;14.73;9.40;;;;;;;;;;5075670;28;20131;-77
2021/04/26 04:07:42;;;;;;;14.05;9.45;;;;;;;;;;5075438;28;20103;-76
2021/04/26 04:10:10;;;;;;;11.82;8.27;;;;;;;;;;5075289;28;20536;-76
2021/04/26 04:12:36;;;;;;;15.40;9.43;;;;;;;;;;5075331;28;20100;-76
2021/04/26 04:15:04;;;;;;;15.50;9.35;;;;;;;;;;5075104;28;20033;-76
2021/04/26 04:17:30;;;;;;;16.10;10.40;;;;;;;;;;5075550;28;20029;-75
2021/04/26 04:19:56;;;;;;;14.35;9.88;;;;;;;;;;5075207;28;20036;-76
2021/04/26 04:22:22;;;;;;;12.20;9.55;;;;;;;;;;5075141;28;20029;-76
2021/04/26 04:24:48;;;;;;;14.95;9.43;;;;;;;;;;5075490;28;20078;-77
2021/04/26 04:27:15;;;;;;;19.95;11.57;;;;;;;;;;5075385;28;20150;-77
2021/04/26 04:29:41;;;;;;;21.88;14.70;;;;;;;;;;5075614;28;20074;-77
2021/04/26 04:32:07;;;;;;;22.30;15.02;;;;;;;;;;5075271;28;20411;-77
2021/04/26 04:34:34;;;;;;;16.88;10.82;;;;;;;;;;5075412;28;20353;-76
2021/04/26 04:37:00;;;;;;;14.65;11.50;;;;;;;;;;5075047;28;20029;-79
2021/04/26 04:39:27;;;;;;;18.10;11.88;;;;;;;;;;5075101;28;20029;-76
2021/04/26 04:41:53;;;;;;;17.35;11.80;;;;;;;;;;5074804;28;20608;-76
2021/04/26 04:44:19;;;;;;;15.93;11.98;;;;;;;;;;5075047;28;20032;-77
2021/04/26 04:46:45;;;;;;;14.27;10.98;;;;;;;;;;5075003;28;20060;-76
2021/04/26 04:49:11;;;;;;;16.15;11.80;;;;;;;;;;5074918;28;20025;-77
2021/04/26 04:51:38;;;;;;;23.63;12.18;;;;;;;;;;5074847;28;20024;-77
2021/04/26 04:54:05;;;;;;;17.48;11.35;;;;;;;;;;5074375;28;20032;-75
2021/04/26 04:56:31;;;;;;;16.92;11.93;;;;;;;;;;5074359;28;20075;-76
2021/04/26 04:58:57;;;;;;;21.48;14.38;;;;;;;;;;5074541;28;20028;-75
2021/04/26 05:01:23;;;;;;;19.90;15.07;;;;;;;;;;5074411;28;20047;-75
2021/04/26 05:03:49;;;;;;;21.10;13.40;;;;;;;;;;5074461;28;20036;-76
2021/04/26 05:06:15;;;;;;;18.90;12.65;;;;;;;;;;5074308;28;20052;-75
2021/04/26 05:08:41;;;;;;;17.38;12.75;;;;;;;;;;5074134;28;20020;-76
2021/04/26 05:11:07;;;;;;;19.30;11.43;;;;;;;;;;5055795;28;20404;-75
2021/04/26 05:13:34;;;;;;;17.88;10.98;;;;;;;;;;5074211;28;20035;-76
2021/04/26 05:16:00;;;;;;;19.77;13.18;;;;;;;;;;5073919;28;20040;-75
2021/04/26 05:18:26;;;;;;;18.08;12.18;;;;;;;;;;5073961;28;20028;-75
2021/04/26 05:20:52;;;;;;;18.52;11.60;;;;;;;;;;5073874;28;20490;-75
2021/04/26 05:23:18;;;;;;;16.35;11.88;;;;;;;;;;5074128;28;20025;-76
2021/04/26 05:25:44;;;;;;;17.10;13.23;;;;;;;;;;5073680;28;20024;-75
2021/04/26 05:28:11;;;;;;;17.73;13.38;;;;;;;;;;5073189;28;20028;-75
2021/04/26 05:30:37;;;;;;;17.15;12.35;;;;;;;;;;5073901;28;20516;-77
2021/04/26 05:33:03;;;;;;;10.40;7.63;;;;;;;;;;5072972;28;20115;-77
2021/04/26 05:44:40;;;;;;;22.65;14.85;;;;;;;;;;5072418;28;20081;-78
2021/04/26 05:50:10;;;;;;;16.83;12.07;;;;;;;;;;5072849;28;20117;-75
2021/04/26 05:52:36;;;;;;;12.45;10.70;;;;;;;;;;5072544;28;20036;-75
2021/04/26 05:55:02;;;;;;;13.43;9.45;;;;;;;;;;5071302;28;20067;-75
2021/04/26 05:57:28;;;;;;;10.32;8.32;;;;;;;;;;5072616;28;20036;-76
2021/04/26 05:59:56;;;;;;;12.43;8.88;;;;;;;;;;5054281;28;20107;-76
2021/04/26 06:02:22;;;;;;;28.10;9.95;;;;;;;;;;5072148;28;20025;-76
2021/04/26 06:04:49;;;;;;;8.63;7.72;;;;;;;;;;5072125;28;20021;-76
2021/04/26 06:07:15;;;;;;;9.98;7.75;;;;;;;;;;5054397;28;20025;-76
2021/04/26 06:09:41;;;;;;;11.48;7.72;;;;;;;;;;5070761;28;20028;-77
2021/04/26 06:12:07;;;;;;;8.45;7.03;;;;;;;;;;5071918;28;20032;-75
2021/04/26 06:17:55;;;;;;;8.43;6.88;;;;;;;;;;5086184;28;20039;-76
2021/04/26 06:20:21;;;;;;;;;;;;;;;;;;5092582;28;20468;-77
2021/04/26 06:28:54;;;;;;;8.07;6.95;;;;;;;;;;5090615;28;20105;-76
2021/04/26 06:50:08;;;;;;;8.35;6.90;;;;;;;;;;5092267;28;19931;-75
2021/04/26 07:08:10;;;;;;;10.88;6.93;;;;;;;;;;5094462;28;20034;-77
2021/04/26 07:10:36;;;;;;;7.15;6.38;;;;;;;;;;5094108;28;20020;-78
2021/04/26 07:28:20;;;;;;;11.90;9.30;;;;;;;;;;5093956;28;20201;-77
2021/04/26 07:49:09;;;;;;;11.45;8.38;;;;;;;;;;5069644;28;20094;-75
2021/04/26 07:51:35;;;;;;;9.55;7.65;;;;;;;;;;5073460;28;20593;-77
2021/04/26 07:57:25;;;;;;;10.32;8.10;;;;;;;;;;5072290;28;20046;-79
2021/04/26 07:59:51;;;;;;;12.32;8.43;;;;;;;;;;5054729;28;20478;-78
2021/04/26 08:02:17;;;;;;;11.82;9.25;;;;;;;;;;5072770;28;20479;-77
2021/04/26 08:04:43;;;;;;;11.00;9.43;;;;;;;;;;5073074;28;20024;-79
2021/04/26 08:07:10;;;;;;;8.90;8.00;;;;;;;;;;5073174;28;20024;-77
2021/04/26 08:09:36;;;;;;;10.65;8.60;;;;;;;;;;5073087;28;20032;-77
2021/04/26 08:12:02;;;;;;;9.52;8.60;;;;;;;;;;5054479;28;20052;-78
2021/04/26 08:14:28;;;;;;;12.07;9.38;;;;;;;;;;5072524;28;20099;-77
2021/04/26 08:16:54;;;;;;;11.45;8.18;;;;;;;;;;5072756;28;20039;-80
2021/04/26 08:19:20;;;;;;;12.93;8.10;;;;;;;;;;5072118;28;20024;-77
2021/04/26 08:21:48;;;;;;;8.05;7.25;;;;;;;;;;5072401;28;20082;-78
2021/04/26 08:24:14;;;;;;;16.10;12.75;;;;;;;;;;5072373;28;20028;-77
2021/04/26 08:26:40;;;;;;;11.48;8.40;;;;;;;;;;5072533;28;20119;-77
2021/04/26 08:29:08;;;;;;;8.95;8.05;;;;;;;;;;5073479;28;20094;-76
2021/04/26 08:31:34;;;;;;;9.52;7.18;;;;;;;;;;5073158;28;20032;-77
2021/04/26 08:49:20;;;;;;;10.40;6.72;;;;;;;;;;5079245;28;20050;-78
2021/04/26 09:28:48;;;;;;;22.85;6.13;;;;;;;;;;5071230;28;20611;-78
2021/04/26 09:31:14;;;;;;;8.52;5.05;;;;;;;;;;5071283;28;20028;-77
2021/04/26 09:49:07;;;;;;;5.95;4.35;;;;;;;;;;5067795;28;20137;-77
2021/04/26 10:09:55;;;;;;;3.78;3.08;;;;;;;;;;5070508;28;20558;-78
2021/04/26 10:49:07;;;;;;;7.65;4.28;;;;;;;;;;5072060;28;20415;-77
2021/04/26 10:51:37;;;;;;;8.23;5.43;;;;;;;;;;5034311;28;20069;-76
2021/04/26 12:18:57;;;;;;;6.32;2.40;;;;;;;;;;5056520;28;20046;-78
2021/04/26 12:21:23;;;;;;;5.32;3.08;;;;;;;;;;5071749;28;20036;-78
2021/04/26 12:23:49;;;;;;;7.93;3.17;;;;;;;;;;5073217;28;20051;-78
2021/04/26 12:26:15;;;;;;;4.45;1.80;;;;;;;;;;5062058;28;20050;-78
2021/04/26 12:28:42;;;;;;;5.82;3.75;;;;;;;;;;5053290;28;20029;-79
2021/04/26 12:31:18;;;;;;;4.30;2.80;;;;;;;;;;5053063;28;20029;-71
2021/04/26 12:33:44;;;;;;;7.55;2.47;;;;;;;;;;5053262;28;20040;-77
2021/04/26 12:36:10;;;;;;;3.25;1.90;;;;;;;;;;5063840;28;20119;-78
2021/04/26 12:38:36;;;;;;;2.60;1.75;;;;;;;;;;5069587;28;20036;-79
2021/04/26 12:41:03;;;;;;;6.05;2.10;;;;;;;;;;5072769;28;20021;-81
2021/04/26 12:43:40;;;;;;;2.88;1.90;;;;;;;;;;5071988;28;20082;-78
2021/04/26 12:46:07;;;;;;;13.63;3.75;;;;;;;;;;5071827;28;20040;-78
2021/04/26 12:48:34;;;;;;;5.50;1.77;;;;;;;;;;5072190;28;20036;-81
2021/04/26 12:51:02;;;;;;;3.90;2.13;;;;;;;;;;5072716;28;20020;-78
2021/04/26 12:53:28;;;;;;;3.67;2.00;;;;;;;;;;5072451;28;20874;-77
2021/04/26 12:56:02;;;;;;;3.63;2.05;;;;;;;;;;5073601;28;20036;-77
2021/04/26 12:58:30;;;;;;;3.67;1.90;;;;;;;;;;5073299;28;20039;-77
2021/04/26 13:29:14;;;;;;;3.05;1.88;;;;;;;;;;5055541;28;20095;-77
2021/04/26 13:31:40;;;;;;;3.33;1.88;;;;;;;;;;5073088;28;20036;-77
2021/04/26 13:34:06;;;;;;;4.00;2.50;;;;;;;;;;5073005;28;20099;-77
2021/04/26 13:36:33;;;;;;;5.22;2.28;;;;;;;;;;5073453;28;20032;-77
2021/04/26 13:38:59;;;;;;;3.30;1.65;;;;;;;;;;5073532;28;20036;-79
2021/04/26 13:41:25;;;;;;;4.63;2.17;;;;;;;;;;5053580;28;20414;-78
2021/04/26 13:43:51;;;;;;;7.40;2.50;;;;;;;;;;5072895;28;20386;-77
2021/04/26 13:46:20;;;;;;;2.92;1.58;;;;;;;;;;5071671;28;20472;-77
2021/04/26 13:48:47;;;;;;;2.80;1.50;;;;;;;;;;5037372;28;20044;-76
2021/04/26 13:51:13;;;;;;;3.13;1.80;;;;;;;;;;5071036;28;20025;-76
2021/04/26 13:53:39;;;;;;;11.02;4.57;;;;;;;;;;5072306;28;20067;-78
2021/04/26 13:56:06;;;;;;;6.40;5.60;;;;;;;;;;5071482;28;20052;-77
2021/04/26 13:58:33;;;;;;;4.28;1.95;;;;;;;;;;5072433;28;20023;-70
2021/04/26 14:00:59;;;;;;;3.53;2.10;;;;;;;;;;5072591;28;20552;-76
2021/04/26 14:03:25;;;;;;;6.22;2.22;;;;;;;;;;5072195;28;20020;-77
2021/04/26 14:05:51;;;;;;;3.30;1.83;;;;;;;;;;5072225;28;20028;-76
2021/04/26 14:08:17;;;;;;;5.60;2.53;;;;;;;;;;5071019;28;20063;-76
2021/04/26 14:10:43;;;;;;;3.92;2.20;;;;;;;;;;5072057;28;20063;-78
2021/04/26 14:13:10;;;;;;;3.75;1.63;;;;;;;;;;5072438;28;20029;-77
2021/04/26 14:15:37;;;;;;;8.30;2.15;;;;;;;;;;5072130;28;20116;-76
2021/04/26 14:18:03;;;;;;;6.75;2.25;;;;;;;;;;5072047;28;20491;-74
2021/04/26 14:20:29;;;;;;;5.15;1.90;;;;;;;;;;5071976;28;20158;-75
2021/04/26 14:22:55;;;;;;;3.17;1.80;;;;;;;;;;5071750;28;20032;-76
2021/04/26 14:25:22;;;;;;;4.63;2.30;;;;;;;;;;5071199;28;20495;-75
2021/04/26 14:27:48;;;;;;;4.53;2.30;;;;;;;;;;5071671;28;20064;-75
2021/04/26 14:30:15;;;;;;;5.00;2.00;;;;;;;;;;5072030;28;20114;-76
2021/04/26 14:32:41;;;;;;;3.53;2.20;;;;;;;;;;5071859;28;20032;-75
2021/04/26 14:35:07;;;;;;;3.83;2.47;;;;;;;;;;5071867;28;20434;-75
2021/04/26 14:37:33;;;;;;;26.10;4.30;;;;;;;;;;5071931;28;20047;-75
2021/04/26 14:40:00;;;;;;;14.40;2.92;;;;;;;;;;5071570;28;20047;-75
2021/04/26 14:42:26;;;;;;;33.38;4.15;;;;;;;;;;5071897;28;20028;-75
2021/04/26 14:44:53;;;;;;;10.85;4.20;;;;;;;;;;5071707;28;20131;-75
2021/04/26 14:47:19;;;;;;;10.25;3.75;;;;;;;;;;5071837;28;20035;-75
2021/04/26 14:49:45;;;;;;;13.90;3.42;;;;;;;;;;5071821;28;20376;-75
2021/04/26 14:52:11;;;;;;;8.93;2.42;;;;;;;;;;5071886;28;20025;-75
2021/04/26 14:54:37;;;;;;;3.53;2.35;;;;;;;;;;5072101;28;20033;-75
2021/04/26 14:57:04;;;;;;;7.30;3.10;;;;;;;;;;5071223;28;20062;-75
2021/04/26 14:59:30;;;;;;;6.00;3.92;;;;;;;;;;5071864;28;20025;-75
2021/04/26 15:01:56;;;;;;;5.03;2.63;;;;;;;;;;5071455;28;20075;-76
2021/04/26 15:04:23;;;;;;;3.88;1.92;;;;;;;;;;5071968;28;20032;-77
2021/04/26 15:06:49;;;;;;;9.63;8.13;;;;;;;;;;5072720;28;20186;-77
2021/04/26 15:09:15;;;;;;;5.30;3.63;;;;;;;;;;5075431;28;20028;-77
2021/04/26 15:11:41;;;;;;;3.58;2.50;;;;;;;;;;5075378;28;20025;-76
2021/04/26 15:14:07;;;;;;;5.78;2.33;;;;;;;;;;5075438;28;20032;-78
2021/04/26 15:16:33;;;;;;;4.85;3.05;;;;;;;;;;5075563;28;20403;-75
2021/04/26 15:19:00;;;;;;;30.52;6.20;;;;;;;;;;5075227;28;20348;-77
2021/04/26 15:21:26;;;;;;;3.53;2.70;;;;;;;;;;5057553;28;20024;-77
2021/04/26 15:23:52;;;;;;;8.10;3.10;;;;;;;;;;5075026;28;20024;-77
2021/04/26 15:26:19;;;;;;;5.15;2.67;;;;;;;;;;5074877;28;20438;-76
2021/04/26 15:28:45;;;;;;;7.05;2.80;;;;;;;;;;5075071;28;20028;-76
2021/04/26 15:31:11;;;;;;;5.10;2.42;;;;;;;;;;5074952;28;20060;-78
2021/04/26 15:33:37;;;;;;;4.32;2.72;;;;;;;;;;5075319;28;20029;-76
2021/04/26 15:36:04;;;;;;;3.10;2.80;;;;;;;;;;5074630;28;20043;-75
2021/04/26 15:38:31;;;;;;;7.65;3.35;;;;;;;;;;5075578;28;20410;-76
2021/04/26 15:40:57;;;;;;;7.10;3.45;;;;;;;;;;5074837;28;20060;-76
2021/04/26 15:43:23;;;;;;;7.55;3.33;;;;;;;;;;5056953;28;20699;-76
2021/04/26 15:45:50;;;;;;;9.75;7.65;;;;;;;;;;5074868;28;20052;-77
2021/04/26 15:48:17;;;;;;;9.63;7.63;;;;;;;;;;5074756;28;20032;-76
2021/04/26 15:50:44;;;;;;;12.13;8.95;;;;;;;;;;5074915;28;20028;-77
2021/04/26 15:53:10;;;;;;;8.23;4.75;;;;;;;;;;5074402;28;20422;-77
2021/04/26 15:55:37;;;;;;;7.57;4.00;;;;;;;;;;5074949;28;20511;-77
2021/04/26 15:58:04;;;;;;;3.42;3.00;;;;;;;;;;5074335;28;20036;-77
2021/04/26 16:00:31;;;;;;;5.93;3.88;;;;;;;;;;5074675;28;20047;-77
2021/04/26 16:02:58;;;;;;;5.18;3.03;;;;;;;;;;5071263;28;20032;-77
2021/04/26 16:05:25;;;;;;;8.75;3.80;;;;;;;;;;5074361;28;20426;-76
2021/04/26 16:07:51;;;;;;;7.57;3.63;;;;;;;;;;5056406;28;20029;-77
2021/04/26 16:10:17;;;;;;;6.55;3.40;;;;;;;;;;5074293;28;20036;-76
2021/04/26 16:12:43;;;;;;;6.30;4.60;;;;;;;;;;5074420;28;20032;-76
2021/04/26 16:15:10;;;;;;;7.00;3.78;;;;;;;;;;5074195;28;20058;-76
2021/04/26 16:17:36;;;;;;;16.25;4.75;;;;;;;;;;5074277;28;20026;-77
2021/04/26 16:20:04;;;;;;;9.25;4.07;;;;;;;;;;5074181;28;20107;-76
2021/04/26 16:22:30;;;;;;;4.65;4.22;;;;;;;;;;5074405;28;20438;-77
2021/04/26 16:24:56;;;;;;;4.82;3.80;;;;;;;;;;5074330;28;20112;-77
2021/04/26 16:27:22;;;;;;;5.95;4.78;;;;;;;;;;5073499;28;20130;-76
2021/04/26 16:29:48;;;;;;;12.93;4.78;;;;;;;;;;5071002;28;20116;-76
2021/04/26 16:32:14;;;;;;;5.95;4.38;;;;;;;;;;5073230;28;20104;-77
2021/04/26 16:34:41;;;;;;;6.20;4.75;;;;;;;;;;5074171;28;20060;-77
2021/04/26 16:37:07;;;;;;;6.60;4.57;;;;;;;;;;5073631;28;20395;-77
2021/04/26 16:39:33;;;;;;;7.93;4.53;;;;;;;;;;5073789;28;20479;-77
2021/04/26 16:42:00;;;;;;;7.82;4.15;;;;;;;;;;5073623;28;20040;-77
2021/04/26 16:44:26;;;;;;;8.63;6.20;;;;;;;;;;5073484;28;20029;-76
2021/04/26 16:46:52;;;;;;;19.67;6.45;;;;;;;;;;5073529;28;20083;-76
2021/04/26 16:49:19;;;;;;;17.88;14.60;;;;;;;;;;5073433;28;20064;-75
2021/04/26 16:51:45;;;;;;;15.52;13.43;;;;;;;;;;5073561;28;20025;-76
2021/04/26 16:54:11;;;;;;;20.50;17.00;;;;;;;;;;5073495;28;20103;-76
2021/04/26 16:56:38;;;;;;;12.60;8.88;;;;;;;;;;5073064;28;20167;-75
2021/04/26 16:59:05;;;;;;;6.80;6.10;;;;;;;;;;5073081;28;20467;-75
2021/04/26 17:01:31;;;;;;;7.38;3.40;;;;;;;;;;5073100;28;20024;-75
2021/04/26 17:03:58;;;;;;;8.65;4.53;;;;;;;;;;5073313;28;20035;-75
2021/04/26 17:06:24;;;;;;;5.72;4.43;;;;;;;;;;5073068;28;20111;-75
2021/04/26 17:08:53;;;;;;;4.18;3.47;;;;;;;;;;5073548;28;20494;-75
2021/04/26 17:11:19;;;;;;;4.38;3.70;;;;;;;;;;5071958;28;20024;-75
2021/04/26 17:13:45;;;;;;;6.53;5.20;;;;;;;;;;5072751;28;20086;-75
2021/04/26 17:16:11;;;;;;;5.63;4.00;;;;;;;;;;5073169;28;20036;-75
2021/04/26 17:18:39;;;;;;;7.10;4.50;;;;;;;;;;5071251;28;20032;-75
2021/04/26 17:21:05;;;;;;;8.75;5.15;;;;;;;;;;5072051;28;20028;-75
2021/04/26 17:23:31;;;;;;;10.68;8.95;;;;;;;;;;5072366;28;20090;-75
2021/04/26 17:25:57;;;;;;;10.60;9.52;;;;;;;;;;5073393;28;20035;-77
2021/04/26 17:28:24;;;;;;;9.95;7.00;;;;;;;;;;5073386;28;20055;-78
2021/04/26 17:30:50;;;;;;;14.63;7.15;;;;;;;;;;5073530;28;20047;-76
2021/04/26 17:33:16;;;;;;;6.20;4.90;;;;;;;;;;5074010;28;20028;-75
2021/04/26 17:35:42;;;;;;;5.13;3.80;;;;;;;;;;5073996;28;20027;-77
2021/04/26 17:38:09;;;;;;;8.50;4.50;;;;;;;;;;5072915;28;20200;-75
2021/04/26 17:40:35;;;;;;;6.07;5.00;;;;;;;;;;5072601;28;20032;-75
2021/04/26 17:43:02;;;;;;;5.00;3.97;;;;;;;;;;5072314;28;20032;-76
2021/04/26 17:45:28;;;;;;;6.80;4.60;;;;;;;;;;5072763;28;20097;-74
2021/04/26 17:47:54;;;;;;;5.05;4.28;;;;;;;;;;5054644;28;20118;-74
2021/04/26 17:50:22;;;;;;;11.00;9.90;;;;;;;;;;5073528;28;20121;-77
2021/04/26 17:55:41;;;;;;;6.50;4.65;;;;;;;;;;5074755;28;20090;-78
2021/04/26 17:58:07;;;;;;;8.05;5.00;;;;;;;;;;5073407;28;20091;-74
2021/04/26 18:00:34;;;;;;;5.85;4.25;;;;;;;;;;5073425;28;20024;-77
2021/04/26 18:03:00;;;;;;;4.47;3.90;;;;;;;;;;5073313;28;20032;-75
2021/04/26 18:05:26;;;;;;;5.63;3.95;;;;;;;;;;5073218;28;20017;-75
2021/04/26 18:07:53;;;;;;;6.15;4.78;;;;;;;;;;5073270;28;20028;-75
2021/04/26 18:10:20;;;;;;;5.32;4.32;;;;;;;;;;5073649;28;20049;-77
2021/04/26 18:12:47;;;;;;;11.82;5.25;;;;;;;;;;5073330;28;20025;-77
2021/04/26 18:15:14;;;;;;;5.43;4.30;;;;;;;;;;5073064;28;20464;-77
2021/04/26 18:17:40;;;;;;;6.07;3.63;;;;;;;;;;5073533;28;20024;-77
2021/04/26 18:20:07;;;;;;;14.43;4.13;;;;;;;;;;5073224;28;20032;-77
2021/04/26 18:22:34;;;;;;;5.15;3.65;;;;;;;;;;5073601;28;20445;-77
2021/04/26 18:25:00;;;;;;;5.47;3.78;;;;;;;;;;5072976;28;20024;-75
2021/04/26 18:27:26;;;;;;;5.88;3.70;;;;;;;;;;5073074;28;20065;-75
2021/04/26 18:29:53;;;;;;;5.53;3.80;;;;;;;;;;5072878;28;20053;-77
2021/04/26 18:32:21;;;;;;;7.47;4.50;;;;;;;;;;5073110;28;20037;-74
2021/04/26 18:34:47;;;;;;;9.45;4.40;;;;;;;;;;5073040;28;20036;-78
2021/04/26 18:37:13;;;;;;;5.97;3.85;;;;;;;;;;5073188;28;20059;-77
2021/04/26 18:39:39;;;;;;;6.50;4.25;;;;;;;;;;5073119;28;20051;-75
2021/04/26 18:42:06;;;;;;;9.90;7.00;;;;;;;;;;5076283;28;20471;-75
2021/04/26 18:44:32;;;;;;;5.30;3.75;;;;;;;;;;5077020;28;20430;-75
2021/04/26 18:46:58;;;;;;;6.15;5.15;;;;;;;;;;5077133;28;20090;-75
2021/04/26 18:49:24;;;;;;;5.03;3.92;;;;;;;;;;5076830;28;20036;-76
2021/04/26 18:51:50;;;;;;;3.92;3.53;;;;;;;;;;5076787;28;20032;-77
2021/04/26 18:54:16;;;;;;;9.38;7.78;;;;;;;;;;5076695;28;20496;-76
2021/04/26 18:56:42;;;;;;;7.93;6.53;;;;;;;;;;5076456;28;20030;-76
2021/04/26 18:59:09;;;;;;;6.88;5.45;;;;;;;;;;5077055;28;20031;-77
2021/04/26 19:01:35;;;;;;;7.82;5.03;;;;;;;;;;5076834;28;20029;-77
2021/04/26 19:04:02;;;;;;;4.75;3.53;;;;;;;;;;5076607;28;20027;-75
2021/04/26 19:06:28;;;;;;;5.75;3.97;;;;;;;;;;5076452;28;20029;-75
2021/04/26 19:08:54;;;;;;;4.18;3.60;;;;;;;;;;5076694;28;20379;-75
2021/04/26 19:11:20;;;;;;;16.33;13.57;;;;;;;;;;5076477;28;20067;-77
2021/04/26 19:13:46;;;;;;;6.22;4.82;;;;;;;;;;5076159;28;20026;-76
2021/04/26 19:16:16;;;;;;;4.53;3.75;;;;;;;;;;5076338;28;20143;-75
2021/04/26 19:18:42;;;;;;;5.40;3.95;;;;;;;;;;5076369;28;20044;-75
2021/04/26 19:21:08;;;;;;;4.68;3.95;;;;;;;;;;5076168;28;20050;-75
2021/04/26 19:23:34;;;;;;;6.82;3.72;;;;;;;;;;5076202;28;20430;-76
2021/04/26 19:26:01;;;;;;;5.75;4.38;;;;;;;;;;5076341;28;20056;-77
2021/04/26 19:28:27;;;;;;;4.97;4.25;;;;;;;;;;5076114;28;20103;-77
2021/04/26 19:30:53;;;;;;;5.22;3.92;;;;;;;;;;5076218;28;20043;-75
2021/04/26 19:33:19;;;;;;;4.07;3.67;;;;;;;;;;5076228;28;20048;-77
2021/04/26 19:35:46;;;;;;;6.47;4.05;;;;;;;;;;5076050;28;20039;-78
2021/04/26 19:38:13;;;;;;;5.10;3.60;;;;;;;;;;5075921;28;20439;-76
2021/04/26 19:40:40;;;;;;;8.38;6.80;;;;;;;;;;5076033;28;20074;-75
2021/04/26 19:43:06;;;;;;;41.70;32.83;;;;;;;;;;5075996;28;20353;-78
2021/04/26 19:45:49;;;;;;;5.72;4.05;;;;;;;;;;5075993;28;20016;-77
2021/04/26 19:48:16;;;;;;;7.85;5.47;;;;;;;;;;5075914;28;20021;-75
2021/04/26 19:50:43;;;;;;;6.28;3.83;;;;;;;;;;5075784;28;20032;-76
2021/04/26 19:53:10;;;;;;;5.10;4.47;;;;;;;;;;5075005;28;20027;-78
2021/04/26 19:55:36;;;;;;;5.15;3.85;;;;;;;;;;5075591;28;20024;-76
2021/04/26 19:58:03;;;;;;;6.85;5.28;;;;;;;;;;5075849;28;20025;-78
2021/04/26 20:00:29;;;;;;;6.75;4.18;;;;;;;;;;5075620;28;20024;-79
2021/04/26 20:02:56;;;;;;;6.90;4.20;;;;;;;;;;5075700;28;20073;-77
2021/04/26 20:05:22;;;;;;;6.57;4.40;;;;;;;;;;5075551;28;20457;-78